Goodrich, Texas
Current Conditions -  °F | °C
As of 8:15 PM on Saturday 20 Dec 2014 (Local Time) from K6R3 Reporting Station
Haze Haze  
Wind Chill: 48°   Ceiling: Unl
Heat Index: 48°   Visibility: 4mi
Dew Point: 47°   Wind: 0mph
Humidity: 97%   Direction: NA
Pressure: 30.19"   Gusts: NA
Location:  30.61°N, 94.95°W
Report Text: K6R3 210215Z AUTO 00000KT 4SM BR CLR 09/08 A3019 RMK AO2 T00890084
Loading
Personal Weather Stations






























Interactive Weather Map New forecast layout! Learn more

10-Day Weather Forecast

Advertisements
Track Severe Weather on mobile